METAR AND TAF INFORMATION
METAR FOR PGUM
ADDS - METARS form results

(2144 UTC 21 January 2020)
Data provider http://aviationweather.gov/metar/data/
 
METAR text: PGUM 212132Z 05018KT 2 1/2SM -RA BR FEW009 BKN012 OVC028 24/22 A3000 RMK AO2 VIS 1 3/4V4 RAB16 P0000 T02390222
Conditions at: PGUM (AGANA , GU, US) observed 2132 UTC 21 January 2020
Temperature: 23.9°C (75°F)
Dewpoint: 22.2°C (72°F) [RH = 90%]
Pressure (altimeter): 30.00 inches Hg (1016.0 mb)
Winds: from the NE (50 degrees) at 21 MPH (18 knots; 9.3 m/s)
Visibility: 2.50 miles (4.02 km)
Ceiling: 1200 feet AGL
Clouds: few clouds at 900 feet AGL
broken clouds at 1200 feet AGL
overcast cloud deck at 2800 feet AGL
Weather: -RA BR  (light rain, mist)

METAR text: PGUM 212123Z 05017KT 2SM RA BR FEW010 BKN015 OVC030 24/22 A3000 RMK AO2 RAB16 P0000 T02390222
Conditions at: PGUM (AGANA , GU, US) observed 2123 UTC 21 January 2020
Temperature: 23.9°C (75°F)
Dewpoint: 22.2°C (72°F) [RH = 90%]
Pressure (altimeter): 30.00 inches Hg (1016.0 mb)
Winds: from the NE (50 degrees) at 20 MPH (17 knots; 8.7 m/s)
Visibility: 2.00 miles (3.22 km)
Ceiling: 1500 feet AGL
Clouds: few clouds at 1000 feet AGL
broken clouds at 1500 feet AGL
overcast cloud deck at 3000 feet AGL
Weather: RA BR  (moderate rain, mist)

METAR text: PGUM 212116Z 05016KT 2SM RA BR BKN014 BKN025 OVC036 24/22 A3000 RMK AO2 RAB16 P0000 T02390222
Conditions at: PGUM (AGANA , GU, US) observed 2116 UTC 21 January 2020
Temperature: 23.9°C (75°F)
Dewpoint: 22.2°C (72°F) [RH = 90%]
Pressure (altimeter): 30.00 inches Hg (1016.0 mb)
Winds: from the NE (50 degrees) at 18 MPH (16 knots; 8.2 m/s)
Visibility: 2.00 miles (3.22 km)
Ceiling: 1400 feet AGL
Clouds: broken clouds at 1400 feet AGL
broken clouds at 2500 feet AGL
overcast cloud deck at 3600 feet AGL
Weather: RA BR  (moderate rain, mist)

METAR text: PGUM 212102Z 04016G21KT 5SM BR BKN014 BKN021 OVC029 24/22 A2999 RMK AO2 T02390222
Conditions at: PGUM (AGANA , GU, US) observed 2102 UTC 21 January 2020
Temperature: 23.9°C (75°F)
Dewpoint: 22.2°C (72°F) [RH = 90%]
Pressure (altimeter): 29.99 inches Hg (1015.7 mb)
Winds: from the NE (40 degrees) at 18 MPH (16 knots; 8.2 m/s)
gusting to 24 MPH (21 knots; 10.8 m/s)
Visibility: 5 miles ( 8 km)
Ceiling: 1400 feet AGL
Clouds: broken clouds at 1400 feet AGL
broken clouds at 2100 feet AGL
overcast cloud deck at 2900 feet AGL
Weather: BR  (mist)

METAR text: PGUM 212054Z 04015G21KT 5SM BR SCT014 BKN021 OVC055 24/22 A2999 RMK AO2 PK WND 04028/2014 RAE17 SLP147 P0002 60003 T02440222 53013
Conditions at: PGUM (AGANA , GU, US) observed 2054 UTC 21 January 2020
Temperature: 24.4°C (76°F)
Dewpoint: 22.2°C (72°F) [RH = 88%]
Pressure (altimeter): 29.99 inches Hg (1015.7 mb)
[Sea-level pressure: 1014.7 mb]
Winds: from the NE (40 degrees) at 17 MPH (15 knots; 7.7 m/s)
gusting to 24 MPH (21 knots; 10.8 m/s)
Visibility: 5 miles ( 8 km)
Ceiling: 2100 feet AGL
Clouds: scattered clouds at 1400 feet AGL
broken clouds at 2100 feet AGL
overcast cloud deck at 5500 feet AGL
Weather: BR  (mist)

Forecast for: PGUM (AGANA , GU, US)
Text: PGUM 211741Z 2118/2224 04015G25KT P6SM VCSH SCT014 BKN050 OVC100
Forecast period: 1800 UTC 21 January 2020 to 0000 UTC 22 January 2020
Forecast type: FROM: standard forecast or significant change
Winds: from the NE (40 degrees) at 17 MPH (15 knots; 7.7 m/s)
gusting to 29 MPH (25 knots; 12.9 m/s)
Visibility: 6 or more miles 10+ km)
Ceiling: 5000 feet AGL
Clouds: scattered clouds at 1400 feet AGL
broken clouds at 5000 feet AGL
overcast cloud deck at 10000 feet AGL
Weather: VCSH  (showers in vicinity)
Text: TEMPO 2118/2120 4SM -SHRA BKN014 OVC040
Forecast period: 1800 to 2000 UTC 21 January 2020
Forecast type: TEMPORARY: The following changes expected for less than half the time period
Visibility: 4 miles (6 km)
Ceiling: 1400 feet AGL
Clouds: broken clouds at 1400 feet AGL
overcast cloud deck at 4000 feet AGL
Weather: -SHRA  (light rain showers)
Text: FM220000 06013G22KT P6SM VCSH SCT020 SCT050 BKN130
Forecast period: 0000 to 0900 UTC 22 January 2020
Forecast type: FROM: standard forecast or significant change
Winds: from the ENE (60 degrees) at 15 MPH (13 knots; 6.7 m/s)
gusting to 25 MPH (22 knots; 11.3 m/s)
Visibility: 6 or more miles 10+ km)
Ceiling: 13000 feet AGL
Clouds: scattered clouds at 2000 feet AGL
scattered clouds at 5000 feet AGL
broken clouds at 13000 feet AGL
Weather: VCSH  (showers in vicinity)
Text: FM220900 07012KT P6SM FEW022 SCT050
Forecast period: 0900 UTC 22 January 2020 to 0000 UTC 23 January 2020
Forecast type: FROM: standard forecast or significant change
Winds: from the ENE (70 degrees) at 14 MPH (12 knots; 6.2 m/s)
Visibility: 6 or more miles 10+ km)
Ceiling: at least 12,000 feet AGL
Clouds: few clouds at 2200 feet AGL
scattered clouds at 5000 feet AGL
Weather: no significant weather forecast for this period

 AIRPORT MAP

 RUNWAY INFORMATION
Runway 06L Runway length 10015 ft Runway width 150 ft
Runway elevation 239 ft Runway displaced threshold 0 ft Runway heading 65
Runway 24R Runway length 10015 ft Runway width 150 ft
Runway elevation 297 ft Runway displaced threshold 0 ft Runway heading 245
Runway 06R Runway length 8001 ft Runway width 150 ft
Runway elevation 231 ft Runway displaced threshold 0 ft Runway heading 65
Runway 24L Runway length 8001 ft Runway width 150 ft
Runway elevation 284 ft Runway displaced threshold 0 ft Runway heading 245

 AIRPORT FREQUENCIES
Type A/D Name APP/DEP Frequency 118.7 MHZ
Type ARTC Name GUAM CERAP Frequency 120.5 MHZ
Type ATIS Name ATIS Frequency 119 MHZ
Type CLD Name CLNC DEL Frequency 121.9 MHZ
Type GND Name GND Frequency 121.9 MHZ
Type RMP Name RAMP Frequency 121.6 MHZ
Type TWR Name AGANA TWR Frequency 118.1 MHZ

 AIRPORT NEAR NAVIGATION AIDS
Type NDB Name Mt Macajna Frequency 385 KHZ
Type VORTAC Name Nimitz Frequency 115300 KHZ



Powered by Virtual Airlines Manager [[v2.6.2]]